Time;durP1;ratioP1;P1;durP2;ratioP2;P2;SDS_P1;SDS_P2;PMS_P1;PMS_P2;Temp;Humidity;BMP_temperature;BMP_pressure;BME280_temperature;BME280_humidity;BME280_pressure;Samples;Min_cycle;Max_cycle;Signal;HPM_P1;HPM_P2
2022/08/02 00:00:09;;;;;;;6.50;4.90;;;;;;;14.72;100.00;101095.59;690804;28;1699;-80
2022/08/02 00:00:29;;;;;;;7.03;5.07;;;;;;;14.69;100.00;101086.00;687898;28;1375;-80
2022/08/02 00:00:50;;;;;;;6.47;5.15;;;;;;;14.64;100.00;101087.81;691150;28;1295;-80
2022/08/02 00:01:10;;;;;;;6.30;5.10;;;;;;;14.59;100.00;101095.75;690926;28;4364;-80
2022/08/02 00:01:31;;;;;;;6.07;5.00;;;;;;;14.57;100.00;101094.88;690920;28;1305;-80
2022/08/02 00:01:51;;;;;;;7.43;5.28;;;;;;;14.61;100.00;101096.59;689938;28;1410;-80
2022/08/02 00:02:12;;;;;;;6.60;5.13;;;;;;;14.62;100.00;101094.81;690086;28;1134;-80
2022/08/02 00:02:33;;;;;;;6.20;5.20;;;;;;;14.56;100.00;101093.13;690765;28;1756;-80
2022/08/02 00:02:53;;;;;;;6.50;5.33;;;;;;;14.53;100.00;101101.09;691451;28;1626;-80
2022/08/02 00:03:13;;;;;;;7.00;5.25;;;;;;;14.47;100.00;101095.94;693293;28;1696;-80
2022/08/02 00:03:34;;;;;;;7.60;5.40;;;;;;;14.43;100.00;101084.56;692313;28;1377;-80
2022/08/02 00:03:54;;;;;;;9.18;5.45;;;;;;;14.41;100.00;101096.00;690718;28;4349;-81
2022/08/02 00:04:15;;;;;;;7.63;5.37;;;;;;;14.40;100.00;101099.50;690469;28;1250;-80
2022/08/02 00:04:35;;;;;;;6.32;5.45;;;;;;;14.36;100.00;101097.81;692870;28;1938;-81
2022/08/02 00:04:55;;;;;;;6.57;5.50;;;;;;;14.30;100.00;101091.75;692033;28;1126;-80
2022/08/02 00:05:16;;;;;;;6.70;5.40;;;;;;;14.28;100.00;101095.28;689499;28;1379;-80
2022/08/02 00:05:37;;;;;;;7.82;5.50;;;;;;;14.26;100.00;101091.81;685505;28;1178;-80
2022/08/02 00:05:57;;;;;;;8.35;5.80;;;;;;;14.27;100.00;101107.59;686549;28;1084;-80
2022/08/02 00:06:17;;;;;;;7.47;5.23;;;;;;;14.36;100.00;101095.19;686531;28;1296;-80
2022/08/02 00:06:38;;;;;;;7.20;5.10;;;;;;;14.43;100.00;101094.22;687644;28;1282;-80
2022/08/02 00:07:01;;;;;;;6.80;5.13;;;;;;;14.49;100.00;101088.88;687326;28;4325;-80
2022/08/02 00:07:21;;;;;;;6.87;5.13;;;;;;;14.54;100.00;101104.56;686922;28;1748;-80
2022/08/02 00:07:42;;;;;;;6.82;5.18;;;;;;;14.58;100.00;101094.00;689197;28;1324;-80
2022/08/02 00:08:03;;;;;;;6.90;4.93;;;;;;;14.62;100.00;101090.47;687996;28;1018;-81
2022/08/02 00:08:23;;;;;;;6.78;5.00;;;;;;;14.66;100.00;101086.00;688839;28;1616;-80
2022/08/02 00:08:43;;;;;;;7.00;4.97;;;;;;;14.62;100.00;101103.63;692006;28;1251;-80
2022/08/02 00:09:05;;;;;;;6.33;5.03;;;;;;;14.62;100.00;101095.72;690852;28;1263;-81
2022/08/02 00:09:25;;;;;;;7.15;4.82;;;;;;;14.69;100.00;101103.53;690273;28;1217;-80
2022/08/02 00:09:45;;;;;;;5.78;4.57;;;;;;;14.69;100.00;101095.63;690389;28;1413;-81
2022/08/02 00:10:08;;;;;;;6.60;4.50;;;;;;;14.71;100.00;101099.13;692948;28;4524;-81
2022/08/02 00:10:28;;;;;;;6.10;4.80;;;;;;;14.71;100.00;101120.16;688732;28;1292;-81
2022/08/02 00:10:49;;;;;;;6.23;4.83;;;;;;;14.70;100.00;101124.53;691976;28;1586;-81
2022/08/02 00:11:10;;;;;;;7.15;4.97;;;;;;;14.70;100.00;101105.25;691168;28;1186;-81
2022/08/02 00:11:30;;;;;;;6.95;5.00;;;;;;;14.68;100.00;101107.06;690265;28;1429;-81
2022/08/02 00:11:51;;;;;;;6.80;5.43;;;;;;;14.70;100.00;101092.09;691834;28;935;-80
2022/08/02 00:12:11;;;;;;;7.20;5.22;;;;;;;14.69;100.00;101116.69;691091;28;1504;-80
2022/08/02 00:12:32;;;;;;;6.43;4.87;;;;;;;14.68;100.00;101110.56;692092;28;912;-80
2022/08/02 00:12:53;;;;;;;6.22;5.10;;;;;;;14.67;100.00;101103.53;689900;28;4355;-80
2022/08/02 00:13:13;;;;;;;6.43;5.32;;;;;;;14.69;100.00;101109.66;688522;28;2049;-81
2022/08/02 00:13:34;;;;;;;6.97;5.43;;;;;;;14.70;100.00;101092.09;691507;28;1508;-81
2022/08/02 00:13:55;;;;;;;7.53;5.60;;;;;;;14.69;100.00;101116.69;690568;28;1641;-80
2022/08/02 00:14:15;;;;;;;6.63;5.10;;;;;;;14.72;100.00;101108.75;693083;28;1393;-80
2022/08/02 00:14:37;;;;;;;6.63;5.25;;;;;;;14.70;100.00;101110.53;692193;28;1578;-81
2022/08/02 00:15:00;;;;;;;6.13;5.50;;;;;;;14.67;100.00;101097.44;685500;28;1264;-80
2022/08/02 00:15:23;;;;;;;7.75;5.25;;;;;;;14.65;100.00;101094.81;688784;28;1318;-80
2022/08/02 00:15:44;;;;;;;8.93;5.55;;;;;;;14.64;100.00;101096.56;685560;28;1302;-81
2022/08/02 00:16:04;;;;;;;6.60;5.10;;;;;;;14.60;100.00;101094.84;686914;28;4356;-80
2022/08/02 00:16:25;;;;;;;7.07;5.10;;;;;;;14.60;100.00;101092.19;688530;28;897;-80
2022/08/02 00:16:46;;;;;;;6.35;5.00;;;;;;;14.65;100.00;101089.56;691876;28;1309;-80
2022/08/02 00:17:07;;;;;;;6.30;5.03;;;;;;;14.67;100.00;101116.69;691217;28;1153;-81
2022/08/02 00:17:29;;;;;;;7.50;5.10;;;;;;;14.70;100.00;101123.69;691161;28;1286;-80
2022/08/02 00:17:50;;;;;;;7.13;4.97;;;;;;;14.72;100.00;101137.72;687679;28;1354;-81
2022/08/02 00:18:11;;;;;;;6.95;5.03;;;;;;;14.72;100.00;101135.94;687955;28;1278;-80
2022/08/02 00:18:32;;;;;;;7.30;5.40;;;;;;;14.66;100.00;101088.66;685769;28;1445;-81
2022/08/02 00:18:54;;;;;;;6.30;5.03;;;;;;;14.70;100.00;101100.00;686861;28;4344;-80
2022/08/02 00:19:15;;;;;;;7.20;5.40;;;;;;;14.70;100.00;101111.38;688086;28;1156;-80
2022/08/02 00:19:35;;;;;;;6.90;5.40;;;;;;;14.73;100.00;101097.31;689655;28;1680;-81
2022/08/02 00:19:56;;;;;;;6.00;5.30;;;;;;;14.72;100.00;101106.13;684360;28;1837;-80
2022/08/02 00:20:16;;;;;;;6.50;5.32;;;;;;;14.69;100.00;101098.25;685665;28;1417;-81
2022/08/02 00:20:37;;;;;;;6.93;5.43;;;;;;;14.64;100.00;101111.50;684894;28;1235;-80
2022/08/02 00:20:57;;;;;;;7.70;5.53;;;;;;;14.64;100.00;101114.13;685129;28;1749;-80
2022/08/02 00:21:20;;;;;;;6.70;5.27;;;;;;;14.63;100.00;101102.75;683676;28;1454;-80
2022/08/02 00:21:41;;;;;;;7.20;5.45;;;;;;;14.66;100.00;101103.56;688152;28;1348;-80
2022/08/02 00:22:01;;;;;;;6.25;5.30;;;;;;;14.64;100.00;101098.34;687721;28;4378;-80
2022/08/02 00:22:22;;;;;;;7.27;5.37;;;;;;;14.62;100.00;101102.69;688031;28;1379;-80
2022/08/02 00:22:44;;;;;;;6.40;5.15;;;;;;;14.61;100.00;101099.22;688145;28;1376;-80
2022/08/02 00:23:05;;;;;;;6.70;5.28;;;;;;;14.62;100.00;101102.69;687087;28;1393;-80
2022/08/02 00:23:25;;;;;;;6.50;4.90;;;;;;;14.57;100.00;101100.16;688018;28;1271;-81
2022/08/02 00:23:46;;;;;;;6.70;5.28;;;;;;;14.50;100.00;101095.00;687288;28;1171;-80
2022/08/02 00:24:09;;;;;;;7.23;5.50;;;;;;;14.44;100.00;101103.84;686326;28;1206;-80
2022/08/02 00:24:30;;;;;;;7.25;5.57;;;;;;;14.41;100.00;101102.13;690870;28;1918;-80
2022/08/02 00:24:50;;;;;;;7.20;5.50;;;;;;;14.46;100.00;101100.28;691618;28;928;-80
2022/08/02 00:25:17;;;;;;;6.05;5.20;;;;;;;14.51;100.00;101107.25;686250;28;4985;-80
2022/08/02 00:25:37;;;;;;;5.47;4.97;;;;;;;14.50;100.00;101106.41;687388;28;1357;-80
2022/08/02 00:26:01;;;;;;;6.80;5.18;;;;;;;14.51;100.00;101102.00;687055;28;1354;-80
2022/08/02 00:26:22;;;;;;;8.63;5.20;;;;;;;14.54;100.00;101144.91;690492;28;1223;-80
2022/08/02 00:26:42;;;;;;;7.17;5.37;;;;;;;14.53;100.00;101137.91;690499;28;1133;-80
2022/08/02 00:27:03;;;;;;;7.38;5.60;;;;;;;14.54;100.00;101117.72;685449;28;2143;-80
2022/08/02 00:27:24;;;;;;;7.05;5.50;;;;;;;14.57;100.00;101123.81;689494;28;1361;-80
2022/08/02 00:27:44;;;;;;;7.80;5.45;;;;;;;14.60;100.00;101108.00;688049;28;1171;-81
2022/08/02 00:28:05;;;;;;;7.13;5.47;;;;;;;14.64;100.00;101109.72;687473;28;4330;-80
2022/08/02 00:28:26;;;;;;;6.75;5.60;;;;;;;14.65;100.00;101115.88;685218;28;1076;-80
2022/08/02 00:28:49;;;;;;;6.85;5.72;;;;;;;14.63;100.00;101134.31;687509;28;1564;-81
2022/08/02 00:29:09;;;;;;;7.72;5.30;;;;;;;14.62;100.00;101106.25;689948;28;1374;-80
2022/08/02 00:29:30;;;;;;;6.80;5.40;;;;;;;14.64;100.00;101141.28;690067;28;1148;-80
2022/08/02 00:29:51;;;;;;;6.43;5.50;;;;;;;14.62;100.00;101108.88;683896;28;1394;-80
2022/08/02 00:30:11;;;;;;;6.85;5.50;;;;;;;14.61;100.00;101125.53;682702;28;1231;-80
2022/08/02 00:30:32;;;;;;;6.60;5.70;;;;;;;14.60;100.00;101110.63;685991;28;1788;-80
2022/08/02 00:30:52;;;;;;;6.72;5.53;;;;;;;14.60;100.00;101108.00;687038;28;4346;-80
2022/08/02 00:31:13;;;;;;;6.47;5.13;;;;;;;14.66;100.00;101106.19;687404;28;1014;-80
2022/08/02 00:31:33;;;;;;;7.23;5.00;;;;;;;14.71;100.00;101099.13;687680;28;1487;-80
2022/08/02 00:31:54;;;;;;;7.80;4.90;;;;;;;14.73;100.00;101113.09;688979;28;1195;-80
2022/08/02 00:32:15;;;;;;;6.03;4.87;;;;;;;14.68;100.00;101096.53;682913;28;1504;-80
2022/08/02 00:32:35;;;;;;;6.93;5.20;;;;;;;14.65;100.00;101105.34;690797;28;1641;-80
2022/08/02 00:32:56;;;;;;;6.35;5.20;;;;;;;14.60;100.00;101115.03;686311;28;1300;-80
2022/08/02 00:33:20;;;;;;;6.80;5.20;;;;;;;14.60;100.00;101107.13;691592;28;1342;-81
2022/08/02 00:33:41;;;;;;;7.10;5.13;;;;;;;14.58;100.00;101115.06;692017;28;1229;-80
2022/08/02 00:34:02;;;;;;;6.60;5.10;;;;;;;14.51;100.00;101096.72;687412;28;4299;-80
2022/08/02 00:34:32;;;;;;;6.97;5.40;;;;;;;14.49;100.00;101109.91;688897;28;1391;-80
2022/08/02 00:34:53;;;;;;;6.90;5.70;;;;;;;14.44;100.00;101099.47;688559;28;1436;-80
2022/08/02 00:35:13;;;;;;;8.60;5.53;;;;;;;14.44;100.00;101103.84;686452;28;1753;-81
2022/08/02 00:35:34;;;;;;;7.63;5.63;;;;;;;14.40;100.00;101100.41;686524;28;1272;-80
2022/08/02 00:35:55;;;;;;;7.72;5.60;;;;;;;14.39;100.00;101129.34;685963;28;1173;-80
2022/08/02 00:36:15;;;;;;;7.57;5.40;;;;;;;14.39;100.00;101110.94;686149;28;1028;-80
2022/08/02 00:36:36;;;;;;;7.00;5.50;;;;;;;14.41;100.00;101125.81;688405;28;1251;-80
2022/08/02 00:36:57;;;;;;;6.65;5.55;;;;;;;14.40;100.00;101117.91;688290;28;4312;-80
2022/08/02 00:37:17;;;;;;;7.90;5.90;;;;;;;14.41;100.00;101117.03;690043;28;1395;-81
2022/08/02 00:37:40;;;;;;;7.53;5.53;;;;;;;14.39;100.00;101119.69;689472;28;1449;-80
2022/08/02 00:38:02;;;;;;;6.97;5.80;;;;;;;14.37;100.00;101105.69;686111;28;1620;-80
2022/08/02 00:38:22;;;;;;;7.93;5.60;;;;;;;14.41;100.00;101111.78;683655;28;1293;-80
2022/08/02 00:38:43;;;;;;;7.60;5.55;;;;;;;14.40;100.00;101104.75;688461;28;1393;-80
2022/08/02 00:39:03;;;;;;;6.27;5.47;;;;;;;14.39;100.00;101124.94;690839;28;1234;-80
2022/08/02 00:39:24;;;;;;;6.82;5.40;;;;;;;14.39;100.00;101092.53;689898;28;1757;-80
2022/08/02 00:39:45;;;;;;;6.68;5.22;;;;;;;14.44;100.00;101090.69;687897;28;1435;-80
2022/08/02 00:40:07;;;;;;;9.30;5.53;;;;;;;14.51;100.00;101108.16;684281;28;4317;-80
2022/08/02 00:40:27;;;;;;;7.35;5.40;;;;;;;14.54;100.00;101129.13;687639;28;1134;-80
2022/08/02 00:40:49;;;;;;;7.10;5.38;;;;;;;14.56;100.00;101116.81;688882;28;1182;-80
2022/08/02 00:41:16;;;;;;;6.60;5.20;;;;;;;14.62;100.00;101090.47;687269;28;1266;-80
2022/08/02 00:41:47;;;;;;;6.65;5.22;;;;;;;14.66;100.00;101116.72;686688;28;1239;-80
2022/08/02 00:42:09;;;;;;;6.60;5.30;;;;;;;14.67;100.00;101081.63;683579;28;1362;-80
2022/08/02 00:42:29;;;;;;;6.45;5.13;;;;;;;14.67;100.00;101105.31;689609;28;1328;-80
2022/08/02 00:43:06;;;;;;;6.57;5.25;;;;;;;14.63;100.00;101086.94;686887;28;1146;-80
2022/08/02 00:43:26;;;;;;;7.07;5.40;;;;;;;14.60;100.00;101094.84;692129;28;4796;-80
2022/08/02 00:43:48;;;;;;;7.30;5.50;;;;;;;14.60;100.00;101102.72;688305;28;871;-80
2022/08/02 00:44:08;;;;;;;6.13;5.50;;;;;;;14.61;100.00;101099.22;686317;28;1571;-80
2022/08/02 00:44:29;;;;;;;6.43;5.63;;;;;;;14.64;100.00;101109.72;690880;28;1179;-80
2022/08/02 00:44:49;;;;;;;7.03;5.75;;;;;;;14.64;100.00;101103.59;690765;28;1918;-81
2022/08/02 00:45:10;;;;;;;7.07;5.80;;;;;;;14.66;100.00;101087.78;690258;28;1471;-80
2022/08/02 00:45:30;;;;;;;7.40;5.65;;;;;;;14.63;100.00;101086.94;691296;28;1392;-80
2022/08/02 00:45:51;;;;;;;7.63;5.50;;;;;;;14.63;100.00;101092.22;688758;28;936;-80
2022/08/02 00:46:12;;;;;;;6.30;5.70;;;;;;;14.64;100.00;101088.66;683937;28;4366;-81
2022/08/02 00:46:32;;;;;;;6.40;5.80;;;;;;;14.60;100.00;101086.94;688954;28;1291;-80
2022/08/02 00:46:53;;;;;;;6.90;5.90;;;;;;;14.58;100.00;101086.09;685803;28;1882;-80
2022/08/02 00:47:13;;;;;;;6.80;5.53;;;;;;;14.60;100.00;101088.72;686875;28;1129;-80
2022/08/02 00:47:34;;;;;;;5.73;5.10;;;;;;;14.65;100.00;101084.28;686586;28;1187;-80
2022/08/02 00:47:55;;;;;;;6.30;5.03;;;;;;;14.63;100.00;101081.69;689271;28;2184;-80
2022/08/02 00:48:15;;;;;;;6.30;5.25;;;;;;;14.67;100.00;101090.38;686900;28;1236;-80
2022/08/02 00:48:35;;;;;;;6.03;5.13;;;;;;;14.75;100.00;101085.88;688681;28;1093;-80
2022/08/02 00:48:56;;;;;;;6.78;5.30;;;;;;;14.72;100.00;101087.72;686539;28;4327;-80
2022/08/02 00:49:16;;;;;;;7.10;5.50;;;;;;;14.71;100.00;101097.34;686289;28;1268;-80
2022/08/02 00:49:36;;;;;;;6.30;5.50;;;;;;;14.68;100.00;101083.38;688628;28;1412;-80
2022/08/02 00:49:57;;;;;;;5.90;5.22;;;;;;;14.66;100.00;101083.38;687787;28;1355;-80
2022/08/02 00:50:17;;;;;;;6.63;5.20;;;;;;;14.62;100.00;101085.22;687553;28;1829;-80
2022/08/02 00:50:39;;;;;;;7.45;5.55;;;;;;;14.61;100.00;101086.06;685302;28;1358;-80
2022/08/02 00:50:59;;;;;;;7.30;5.53;;;;;;;14.59;100.00;101087.84;683660;28;1377;-81
2022/08/02 00:51:20;;;;;;;8.60;5.38;;;;;;;14.58;100.00;101088.75;685889;28;1608;-80
2022/08/02 00:51:41;;;;;;;7.17;5.47;;;;;;;14.56;100.00;101085.25;689551;28;859;-80
2022/08/02 00:52:01;;;;;;;6.60;5.50;;;;;;;14.55;100.00;101093.16;689743;28;5528;-82
2022/08/02 00:52:25;;;;;;;6.68;5.45;;;;;;;14.51;100.00;101087.09;689699;28;1372;-80
2022/08/02 00:52:45;;;;;;;6.53;5.47;;;;;;;14.53;100.00;101092.34;689433;28;1382;-80
2022/08/02 00:53:08;;;;;;;6.38;5.15;;;;;;;14.53;100.00;101085.28;688734;28;1683;-80
2022/08/02 00:53:31;;;;;;;7.22;5.30;;;;;;;14.55;100.00;101091.44;689275;28;1446;-80
2022/08/02 00:53:51;;;;;;;8.65;5.75;;;;;;;14.54;100.00;101092.31;688047;28;1527;-81
2022/08/02 00:54:13;;;;;;;7.63;5.50;;;;;;;14.49;100.00;101094.13;689607;28;1316;-80
2022/08/02 00:54:33;;;;;;;7.07;5.70;;;;;;;14.46;100.00;101095.03;690089;28;1371;-81
2022/08/02 00:54:54;;;;;;;6.82;5.90;;;;;;;14.43;100.00;101089.81;685683;28;4629;-80
2022/08/02 00:55:15;;;;;;;7.13;5.77;;;;;;;14.38;100.00;101080.25;689495;28;1047;-80
2022/08/02 00:55:36;;;;;;;6.90;5.70;;;;;;;14.34;100.00;101083.81;691783;28;1130;-81
2022/08/02 00:55:57;;;;;;;7.53;5.75;;;;;;;14.30;100.00;101080.34;690961;28;1781;-80
2022/08/02 00:56:20;;;;;;;8.00;5.93;;;;;;;14.30;100.00;101093.50;692290;28;1004;-81
2022/08/02 00:56:41;;;;;;;7.47;6.00;;;;;;;14.36;100.00;101085.53;690352;28;820;-80
2022/08/02 00:57:01;;;;;;;7.10;5.65;;;;;;;14.38;100.00;101081.13;691429;28;778;-80
2022/08/02 00:57:22;;;;;;;7.00;5.63;;;;;;;14.43;100.00;101078.44;688808;28;1270;-81
2022/08/02 00:57:45;;;;;;;6.70;5.77;;;;;;;14.40;100.00;101087.25;687154;28;1469;-80
2022/08/02 00:58:05;;;;;;;7.10;5.97;;;;;;;14.39;100.00;101077.59;691314;28;4317;-80
2022/08/02 00:58:27;;;;;;;8.05;6.15;;;;;;;14.39;100.00;101082.00;691130;28;1046;-80
2022/08/02 00:58:47;;;;;;;8.60;6.00;;;;;;;14.36;100.00;101076.75;685478;28;1419;-81
2022/08/02 00:59:07;;;;;;;7.32;5.90;;;;;;;14.36;100.00;101079.41;688381;28;1011;-80
2022/08/02 00:59:28;;;;;;;6.73;6.03;;;;;;;14.33;100.00;101088.22;688249;28;1639;-80
2022/08/02 00:59:48;;;;;;;6.67;5.87;;;;;;;14.32;100.00;101070.69;686893;28;1187;-81
2022/08/02 01:00:10;;;;;;;7.53;5.70;;;;;;;14.37;100.00;101082.03;687079;28;1097;-80
2022/08/02 01:00:30;;;;;;;6.80;5.57;;;;;;;14.39;100.00;101079.38;693685;28;1247;-80
2022/08/02 01:00:51;;;;;;;6.60;5.63;;;;;;;14.39;100.00;101076.75;691067;28;1412;-80
2022/08/02 01:01:11;;;;;;;7.07;6.10;;;;;;;14.36;100.00;101082.03;686129;28;4271;-80
2022/08/02 01:01:37;;;;;;;7.30;6.00;;;;;;;14.30;100.00;101083.88;686636;28;1164;-81
2022/08/02 01:01:58;;;;;;;7.00;6.10;;;;;;;14.31;100.00;101080.31;686824;28;1659;-80
2022/08/02 01:02:18;;;;;;;7.30;6.13;;;;;;;14.33;100.00;101077.72;685912;28;1256;-80
2022/08/02 01:02:39;;;;;;;6.83;6.07;;;;;;;14.33;100.00;101088.22;686415;28;1205;-80
2022/08/02 01:03:02;;;;;;;6.78;5.93;;;;;;;14.39;100.00;101076.75;686084;28;868;-80
2022/08/02 01:03:25;;;;;;;6.65;5.65;;;;;;;14.37;100.00;101089.03;684989;28;1376;-80
2022/08/02 01:03:46;;;;;;;6.65;5.38;;;;;;;14.36;100.00;101087.28;688163;28;928;-80
2022/08/02 01:04:08;;;;;;;6.50;5.30;;;;;;;14.39;100.00;101082.00;690823;28;4352;-80
2022/08/02 01:04:29;;;;;;;7.20;5.45;;;;;;;14.41;100.00;101081.09;691122;28;1428;-81
2022/08/02 01:04:49;;;;;;;7.13;5.68;;;;;;;14.37;100.00;101083.78;686965;28;1878;-80
2022/08/02 01:05:10;;;;;;;6.67;5.67;;;;;;;14.30;100.00;101086.50;686734;28;1171;-81
2022/08/02 01:05:31;;;;;;;6.57;5.88;;;;;;;14.32;100.00;101081.22;687704;28;1319;-81
2022/08/02 01:05:51;;;;;;;7.63;6.07;;;;;;;14.28;100.00;101105.81;685129;28;1161;-80
2022/08/02 01:06:12;;;;;;;6.72;6.03;;;;;;;14.29;100.00;101107.56;683279;28;1236;-80
2022/08/02 01:06:33;;;;;;;6.53;5.83;;;;;;;14.22;100.00;101098.88;682361;28;1258;-80
2022/08/02 01:06:53;;;;;;;6.77;5.97;;;;;;;14.20;100.00;101079.59;684751;28;4503;-80
2022/08/02 01:07:14;;;;;;;7.53;6.10;;;;;;;14.19;100.00;101087.53;688080;28;1143;-80
2022/08/02 01:07:35;;;;;;;8.30;6.10;;;;;;;14.16;100.00;101087.56;686746;28;1328;-80
2022/08/02 01:07:55;;;;;;;7.07;5.63;;;;;;;14.23;100.00;101082.22;688393;28;1014;-80
2022/08/02 01:08:16;;;;;;;6.90;5.57;;;;;;;14.22;100.00;101096.25;688547;28;1749;-80
2022/08/02 01:08:40;;;;;;;6.70;5.60;;;;;;;14.29;100.00;101091.78;685327;28;967;-80
2022/08/02 01:09:01;;;;;;;7.68;6.00;;;;;;;14.35;100.00;101090.81;681833;28;1504;-80
2022/08/02 01:09:21;;;;;;;8.70;5.93;;;;;;;14.38;100.00;101109.19;683487;28;1488;-80
2022/08/02 01:09:44;;;;;;;7.78;5.93;;;;;;;14.44;100.00;101117.88;684113;28;1472;-80
2022/08/02 01:10:06;;;;;;;6.75;5.82;;;;;;;14.49;100.00;101080.97;683464;28;4298;-80
2022/08/02 01:10:26;;;;;;;6.82;5.45;;;;;;;14.54;100.00;101087.03;688202;28;1023;-80
2022/08/02 01:10:47;;;;;;;7.20;5.50;;;;;;;14.59;100.00;101081.69;688906;28;1356;-81
2022/08/02 01:11:07;;;;;;;6.80;5.25;;;;;;;14.64;100.00;101117.63;687844;28;1148;-80
2022/08/02 01:11:29;;;;;;;5.80;5.10;;;;;;;14.72;100.00;101091.19;683843;28;1251;-80
2022/08/02 01:11:52;;;;;;;6.88;5.50;;;;;;;14.80;100.00;101084.06;680172;28;1431;-80
2022/08/02 01:12:13;;;;;;;6.45;5.65;;;;;;;14.78;100.00;101101.63;684531;28;1272;-80
2022/08/02 01:12:33;;;;;;;6.63;5.38;;;;;;;14.77;100.00;101086.75;684547;28;966;-80
2022/08/02 01:12:54;;;;;;;6.30;5.35;;;;;;;14.76;100.00;101098.16;685371;28;4421;-80
2022/08/02 01:13:15;;;;;;;6.03;5.10;;;;;;;14.81;100.00;101106.84;689088;28;1788;-80
2022/08/02 01:13:36;;;;;;;6.13;5.00;;;;;;;14.81;100.00;101105.97;687310;28;1372;-81
2022/08/02 01:14:04;;;;;;;6.43;4.78;;;;;;;14.77;100.00;101093.75;684650;28;1290;-80
2022/08/02 01:14:25;;;;;;;5.25;4.70;;;;;;;14.74;100.00;101096.44;681433;28;1235;-80
2022/08/02 01:14:51;;;;;;;5.70;4.90;;;;;;;14.66;100.00;101106.19;680415;28;1446;-81
2022/08/02 01:15:11;;;;;;;6.88;5.38;;;;;;;14.59;100.00;101108.91;685670;28;1472;-80
2022/08/02 01:15:39;;;;;;;7.15;5.45;;;;;;;14.48;100.00;101076.59;684855;28;4237;-80
2022/08/02 01:16:07;;;;;;;7.30;5.50;;;;;;;14.43;100.00;101094.22;684893;28;4374;-80
2022/08/02 01:16:32;;;;;;;8.27;5.75;;;;;;;14.40;100.00;101089.88;689029;28;1377;-80
2022/08/02 01:17:15;;;;;;;7.47;5.85;;;;;;;14.39;100.00;101087.28;688359;28;1256;-80
2022/08/02 01:17:59;;;;;;;8.38;5.80;;;;;;;14.38;100.00;101090.78;689828;28;1187;-80
2022/08/02 01:18:39;;;;;;;6.22;5.40;;;;;;;14.27;100.00;101089.19;690541;28;1198;-80
2022/08/02 01:19:13;;;;;;;7.90;5.65;;;;;;;14.27;100.00;101083.03;686096;28;5607;-80
2022/08/02 01:19:52;;;;;;;6.63;5.75;;;;;;;14.24;100.00;101083.94;689314;28;1061;-80
2022/08/02 01:21:03;;;;;;;6.25;5.53;;;;;;;14.33;100.00;101076.81;689792;28;1609;-80
2022/08/02 01:21:48;;;;;;;6.32;5.07;;;;;;;14.46;100.00;101079.25;682317;28;1205;-80
2022/08/02 01:22:17;;;;;;;7.13;5.28;;;;;;;14.49;100.00;101080.97;680852;28;4376;-80
2022/08/02 01:22:51;;;;;;;7.07;5.30;;;;;;;14.47;100.00;101080.13;689716;28;1430;-80
2022/08/02 01:23:20;;;;;;;7.80;5.78;;;;;;;14.39;100.00;101077.59;691498;28;1571;-81
2022/08/02 01:24:29;;;;;;;6.88;5.88;;;;;;;14.27;100.00;101076.03;687294;28;1610;-81
2022/08/02 01:24:57;;;;;;;7.53;5.70;;;;;;;14.30;100.00;101073.34;692572;28;1969;-80
2022/08/02 01:25:26;;;;;;;7.80;5.60;;;;;;;14.28;100.00;101071.63;693085;28;4810;-80
2022/08/02 01:26:08;;;;;;;7.47;5.60;;;;;;;14.28;100.00;101069.00;692813;28;1195;-80
2022/08/02 01:26:45;;;;;;;7.32;5.75;;;;;;;14.34;100.00;101070.66;690769;28;1190;-80
2022/08/02 01:27:06;;;;;;;6.85;5.10;;;;;;;14.39;100.00;101068.84;687914;28;1586;-80
2022/08/02 01:27:44;;;;;;;7.20;5.57;;;;;;;14.40;100.00;101066.19;686397;28;1257;-81
2022/08/02 01:28:37;;;;;;;6.10;5.43;;;;;;;14.40;100.00;101068.84;685560;28;4296;-80
2022/08/02 01:29:05;;;;;;;6.50;5.15;;;;;;;14.43;100.00;101073.19;688236;28;1452;-81
2022/08/02 01:29:33;;;;;;;6.45;5.25;;;;;;;14.42;100.00;101067.03;686495;28;897;-80
2022/08/02 01:29:59;;;;;;;6.72;5.28;;;;;;;14.41;100.00;101069.69;687832;28;1707;-80
2022/08/02 01:30:20;;;;;;;6.28;5.18;;;;;;;14.39;100.00;101067.09;691326;28;1195;-81
2022/08/02 01:30:43;;;;;;;6.90;5.30;;;;;;;14.39;100.00;101074.97;692879;28;1599;-80
2022/08/02 01:31:24;;;;;;;7.85;5.30;;;;;;;14.39;100.00;101066.22;686874;28;4400;-80
2022/08/02 01:31:54;;;;;;;6.93;5.72;;;;;;;14.40;100.00;101073.19;680868;28;1737;-80
2022/08/02 01:32:18;;;;;;;6.40;5.60;;;;;;;14.38;100.00;101072.38;689854;28;1341;-80
2022/08/02 01:32:43;;;;;;;7.07;6.03;;;;;;;14.27;100.00;101070.78;689303;28;1261;-80
2022/08/02 01:33:07;;;;;;;7.75;6.00;;;;;;;14.27;100.00;101089.19;688750;28;1272;-80
2022/08/02 01:33:38;;;;;;;7.13;5.93;;;;;;;14.29;100.00;101076.00;683788;28;1567;-80
2022/08/02 01:34:04;;;;;;;7.30;6.20;;;;;;;14.27;100.00;101070.78;685406;28;4292;-81
2022/08/02 01:34:34;;;;;;;6.45;5.75;;;;;;;14.29;100.00;101068.13;685233;28;1296;-81
2022/08/02 01:35:09;;;;;;;7.45;5.93;;;;;;;14.24;100.00;101065.53;685481;28;1258;-81
2022/08/02 01:35:37;;;;;;;7.55;5.82;;;;;;;14.16;100.00;101087.56;691493;28;1565;-80
2022/08/02 01:36:00;;;;;;;7.10;5.88;;;;;;;14.10;100.00;101075.38;691115;28;1570;-80
2022/08/02 01:36:27;;;;;;;7.07;5.55;;;;;;;14.11;100.00;101063.97;688133;28;1408;-80
2022/08/02 01:36:59;;;;;;;6.78;5.43;;;;;;;14.19;100.00;101064.75;689256;28;1303;-80
2022/08/02 01:37:47;;;;;;;6.60;5.85;;;;;;;14.22;100.00;101069.06;685061;28;4744;-80
2022/08/02 01:38:20;;;;;;;6.60;5.60;;;;;;;14.27;100.00;101099.69;686201;28;974;-80
2022/08/02 01:38:47;;;;;;;6.80;5.40;;;;;;;14.29;100.00;101079.50;687692;28;1442;-80
2022/08/02 01:39:15;;;;;;;6.15;5.35;;;;;;;14.31;100.00;101066.31;690108;28;1226;-80
2022/08/02 01:39:45;;;;;;;6.25;5.65;;;;;;;14.26;100.00;101070.75;691505;28;1550;-80
2022/08/02 01:40:10;;;;;;;6.80;6.03;;;;;;;14.13;100.00;101085.84;688671;28;4348;-80
2022/08/02 01:40:35;;;;;;;7.95;6.25;;;;;;;14.07;100.00;101086.78;691396;28;1433;-80
2022/08/02 01:41:01;;;;;;;7.53;5.88;;;;;;;14.08;100.00;101069.25;691612;28;1300;-80
2022/08/02 01:41:27;;;;;;;7.53;5.97;;;;;;;14.06;100.00;101084.19;693919;28;1714;-80
2022/08/02 01:41:48;;;;;;;7.82;5.72;;;;;;;14.08;100.00;101066.63;690573;28;5002;-80
2022/08/02 01:42:09;;;;;;;7.97;5.78;;;;;;;14.10;100.00;101055.19;686322;28;1298;-80
2022/08/02 01:42:31;;;;;;;6.70;5.32;;;;;;;14.14;100.00;101061.28;688379;28;1543;-80
2022/08/02 01:42:54;;;;;;;5.85;5.25;;;;;;;14.19;100.00;101059.50;687672;28;1428;-80
2022/08/02 01:43:16;;;;;;;6.82;5.78;;;;;;;14.19;100.00;101062.13;687135;28;6266;-80
2022/08/02 01:43:41;;;;;;;8.15;5.95;;;;;;;14.12;100.00;101057.81;690721;28;1268;-80
2022/08/02 01:44:03;;;;;;;6.85;5.97;;;;;;;14.05;100.00;101066.66;691310;28;1498;-80
2022/08/02 01:44:27;;;;;;;7.38;6.00;;;;;;;14.04;100.00;101059.66;688662;28;1789;-80
2022/08/02 01:44:49;;;;;;;8.35;5.65;;;;;;;14.05;100.00;101050.88;689228;28;1899;-80
2022/08/02 01:45:12;;;;;;;7.40;5.90;;;;;;;14.07;100.00;101060.50;685327;28;1184;-80
2022/08/02 01:45:36;;;;;;;7.35;5.68;;;;;;;14.05;100.00;101061.41;686582;28;1303;-81
2022/08/02 01:46:00;;;;;;;7.97;5.80;;;;;;;13.99;100.00;101072.00;683275;28;4306;-79
2022/08/02 01:46:23;;;;;;;7.32;5.70;;;;;;;13.91;100.00;101070.31;685894;28;1410;-80
2022/08/02 01:46:45;;;;;;;6.75;5.93;;;;;;;13.84;100.00;101066.03;689670;28;1367;-80
2022/08/02 01:47:09;;;;;;;7.35;5.93;;;;;;;13.79;100.00;101065.25;689666;28;1365;-80
2022/08/02 01:47:36;;;;;;;7.13;5.70;;;;;;;13.78;100.00;101068.75;685986;28;1158;-80
2022/08/02 01:47:58;;;;;;;7.68;5.80;;;;;;;13.77;100.00;101064.38;685214;28;1437;-80
2022/08/02 01:48:19;;;;;;;6.75;5.80;;;;;;;13.76;100.00;101070.50;686143;28;1154;-81
2022/08/02 01:48:43;;;;;;;6.97;5.80;;;;;;;13.77;100.00;101073.13;682749;28;1810;-80
2022/08/02 01:49:06;;;;;;;6.82;5.68;;;;;;;13.79;100.00;101065.25;677067;28;4324;-80
2022/08/02 01:49:29;;;;;;;7.90;5.70;;;;;;;13.77;100.00;101085.41;689002;28;933;-80
2022/08/02 01:49:53;;;;;;;7.10;5.30;;;;;;;13.74;100.00;101081.03;692332;28;1360;-80